Time;durP1;ratioP1;P1;durP2;ratioP2;P2;SDS_P1;SDS_P2;PMS_P1;PMS_P2;Temp;Humidity;BMP_temperature;BMP_pressure;BME280_temperature;BME280_humidity;BME280_pressure;Samples;Min_cycle;Max_cycle;Signal;HPM_P1;HPM_P2
2021/12/04 00:00:58;;;;;;;26.27;15.68;;;2.30;99.90;;;;;;4962031;28;20046;-72
2021/12/04 00:03:26;;;;;;;29.70;17.10;;;2.20;99.90;;;;;;4965672;28;20051;-73
2021/12/04 00:05:56;;;;;;;28.17;16.98;;;2.30;99.90;;;;;;4964232;28;20059;-72
2021/12/04 00:08:27;;;;;;;30.52;17.23;;;2.30;99.90;;;;;;4948545;28;20143;-71
2021/12/04 00:10:55;;;;;;;30.30;17.00;;;2.30;99.90;;;;;;4982821;28;20135;-72
2021/12/04 00:13:22;;;;;;;36.13;19.27;;;2.30;99.90;;;;;;4963173;28;20054;-71
2021/12/04 00:15:49;;;;;;;31.25;17.33;;;2.20;99.90;;;;;;4964140;28;20641;-71
2021/12/04 00:18:17;;;;;;;39.80;19.02;;;2.20;99.90;;;;;;4945830;28;20512;-71
2021/12/04 00:20:44;;;;;;;31.88;17.00;;;2.20;99.90;;;;;;4972308;28;20053;-71
2021/12/04 00:23:11;;;;;;;34.05;17.90;;;2.20;99.90;;;;;;4946888;28;20051;-70
2021/12/04 00:25:38;;;;;;;32.45;17.98;;;2.10;99.90;;;;;;4946917;28;20050;-72
2021/12/04 00:28:07;;;;;;;39.22;19.27;;;2.10;99.90;;;;;;4945220;28;20053;-72
2021/12/04 00:30:35;;;;;;;35.17;19.13;;;2.10;99.90;;;;;;4961499;28;20050;-71
2021/12/04 00:33:17;;;;;;;39.33;20.08;;;2.10;99.90;;;;;;4965907;28;20049;-70
2021/12/04 00:35:46;;;;;;;40.35;20.50;;;2.10;99.90;;;;;;4961592;28;20584;-72
2021/12/04 00:49:17;;;;;;;38.50;20.38;;;2.00;99.90;;;;;;4961956;28;20086;-72
2021/12/04 00:51:53;;;;;;;35.08;20.38;;;2.00;99.90;;;;;;4962019;28;20062;-71
2021/12/04 00:54:24;;;;;;;37.72;20.35;;;2.00;99.90;;;;;;4979401;28;20051;-71
2021/12/04 00:56:52;;;;;;;34.63;19.50;;;2.00;99.90;;;;;;4961345;28;20623;-71
2021/12/04 00:59:20;;;;;;;34.85;20.60;;;2.00;99.90;;;;;;4960776;28;20146;-71
2021/12/04 01:01:47;;;;;;;37.50;21.23;;;2.00;99.90;;;;;;4946322;28;20046;-71
2021/12/04 01:04:17;;;;;;;33.00;19.20;;;2.00;99.90;;;;;;4963538;28;20599;-70
2021/12/04 01:06:45;;;;;;;33.00;19.13;;;2.00;99.90;;;;;;4961540;28;20407;-70
2021/12/04 01:09:13;;;;;;;36.92;20.55;;;2.00;99.90;;;;;;4944307;28;20050;-71
2021/12/04 01:11:41;;;;;;;37.13;19.38;;;2.00;99.90;;;;;;4946617;28;20059;-71
2021/12/04 01:14:11;;;;;;;36.58;19.58;;;2.00;99.90;;;;;;4962255;28;20082;-69
2021/12/04 01:16:38;;;;;;;34.85;18.98;;;2.00;99.90;;;;;;4961651;28;20147;-71
2021/12/04 01:19:05;;;;;;;36.53;19.70;;;2.00;99.90;;;;;;4945792;28;20050;-71
2021/12/04 01:21:32;;;;;;;33.38;19.48;;;1.90;99.90;;;;;;4945050;28;20061;-72
2021/12/04 01:23:59;;;;;;;31.35;18.05;;;2.00;99.90;;;;;;4978818;28;20082;-72
2021/12/04 01:26:26;;;;;;;36.17;20.92;;;1.90;99.90;;;;;;4977677;28;20455;-71
2021/12/04 01:28:54;;;;;;;32.00;18.80;;;2.00;99.90;;;;;;4962008;28;20504;-71
2021/12/04 01:31:21;;;;;;;34.65;19.90;;;1.90;99.90;;;;;;4962486;28;20058;-72
2021/12/04 01:33:48;;;;;;;39.13;19.80;;;1.90;99.90;;;;;;4977021;28;20038;-71
2021/12/04 01:36:15;;;;;;;35.35;20.02;;;2.00;99.90;;;;;;4943298;28;20091;-72
2021/12/04 01:38:43;;;;;;;32.22;18.90;;;2.10;99.90;;;;;;4960717;28;20093;-72
2021/12/04 01:41:10;;;;;;;32.50;20.38;;;2.00;99.90;;;;;;4964136;28;20066;-70
2021/12/04 01:43:37;;;;;;;35.55;19.30;;;2.00;99.90;;;;;;4963335;28;20109;-71
2021/12/04 01:46:04;;;;;;;32.83;19.48;;;1.90;99.90;;;;;;4945917;28;20127;-71
2021/12/04 01:48:31;;;;;;;32.83;19.60;;;1.90;99.90;;;;;;4959937;28;20385;-72
2021/12/04 01:50:59;;;;;;;37.35;20.10;;;1.90;99.90;;;;;;4944483;28;20050;-71
2021/12/04 01:53:26;;;;;;;30.27;16.45;;;2.00;99.90;;;;;;4946156;28;20532;-72
2021/12/04 01:55:56;;;;;;;38.03;17.85;;;1.90;99.90;;;;;;4963283;28;20125;-73
2021/12/04 01:58:24;;;;;;;30.55;18.38;;;1.90;99.90;;;;;;4957408;28;20069;-71
2021/12/04 02:00:52;;;;;;;31.60;18.08;;;1.90;99.90;;;;;;4961696;28;20053;-72
2021/12/04 02:03:20;;;;;;;28.98;17.05;;;1.90;99.90;;;;;;4962535;28;20125;-72
2021/12/04 02:05:48;;;;;;;27.83;17.38;;;1.90;99.90;;;;;;4957901;28;20066;-71
2021/12/04 02:08:17;;;;;;;31.27;18.33;;;1.90;99.90;;;;;;4974207;28;20055;-72
2021/12/04 02:10:46;;;;;;;31.73;18.90;;;1.90;99.90;;;;;;4962273;28;20511;-72
2021/12/04 02:13:15;;;;;;;30.30;18.33;;;1.90;99.90;;;;;;4962684;28;20542;-72
2021/12/04 02:15:43;;;;;;;29.13;17.63;;;2.00;99.90;;;;;;4961787;28;20047;-72
2021/12/04 02:18:10;;;;;;;32.20;18.90;;;2.00;99.90;;;;;;4960012;28;20059;-71
2021/12/04 02:20:37;;;;;;;37.53;18.27;;;1.90;99.90;;;;;;4961288;28;20039;-72
2021/12/04 02:23:06;;;;;;;29.95;16.88;;;2.00;99.90;;;;;;4961542;28;20065;-73
2021/12/04 02:25:34;;;;;;;34.17;18.30;;;2.00;99.90;;;;;;4962417;28;20695;-72
2021/12/04 02:28:02;;;;;;;29.90;17.63;;;2.00;99.90;;;;;;4961296;28;20587;-71
2021/12/04 02:30:32;;;;;;;28.67;16.92;;;2.00;99.90;;;;;;4961356;28;20165;-71
2021/12/04 02:32:59;;;;;;;31.70;17.75;;;2.00;99.90;;;;;;4961665;28;20065;-71
2021/12/04 02:35:27;;;;;;;31.48;19.58;;;2.10;99.90;;;;;;4959055;28;20065;-72
2021/12/04 02:37:54;;;;;;;30.50;17.77;;;2.00;99.90;;;;;;4959289;28;20043;-72
2021/12/04 02:40:22;;;;;;;30.00;18.35;;;2.00;99.90;;;;;;4960701;28;20077;-70
2021/12/04 02:42:50;;;;;;;30.27;17.30;;;2.00;99.90;;;;;;4944535;28;20097;-73
2021/12/04 02:45:17;;;;;;;35.60;19.20;;;2.00;99.90;;;;;;4960709;28;20055;-72
2021/12/04 02:47:44;;;;;;;28.75;16.63;;;2.00;99.90;;;;;;4928304;28;20523;-72
2021/12/04 02:50:13;;;;;;;32.90;17.23;;;2.10;99.90;;;;;;4960976;28;20047;-72
2021/12/04 02:52:43;;;;;;;25.83;16.65;;;2.00;99.90;;;;;;4959936;28;20051;-72
2021/12/04 02:55:10;;;;;;;27.98;16.85;;;2.00;99.90;;;;;;4945690;28;20066;-72
2021/12/04 02:57:43;;;;;;;25.88;16.02;;;2.00;99.90;;;;;;4927549;28;20051;-71
2021/12/04 03:00:14;;;;;;;27.35;17.10;;;2.00;99.90;;;;;;4960137;28;20054;-73
2021/12/04 03:02:42;;;;;;;28.55;16.65;;;2.00;99.90;;;;;;4960474;28;20129;-71
2021/12/04 03:05:09;;;;;;;26.83;16.60;;;2.10;99.90;;;;;;4959573;28;20098;-72
2021/12/04 03:07:36;;;;;;;31.58;17.23;;;2.10;99.90;;;;;;4958177;28;20074;-71
2021/12/04 03:10:04;;;;;;;29.77;17.85;;;2.00;99.90;;;;;;4961464;28;20038;-72
2021/12/04 03:12:31;;;;;;;26.92;16.38;;;2.10;99.90;;;;;;4975663;28;20046;-72
2021/12/04 03:14:57;;;;;;;25.73;16.45;;;2.10;99.90;;;;;;4943954;28;20258;-71
2021/12/04 03:17:26;;;;;;;33.67;17.42;;;2.10;99.90;;;;;;4959022;28;20042;-71
2021/12/04 03:19:53;;;;;;;26.88;16.30;;;2.10;99.90;;;;;;4958979;28;20579;-71
2021/12/04 03:22:22;;;;;;;32.05;17.75;;;2.10;99.90;;;;;;4942689;28;20050;-72
2021/12/04 03:24:50;;;;;;;24.90;15.48;;;2.10;99.90;;;;;;4961218;28;20059;-72
2021/12/04 03:27:18;;;;;;;27.00;16.27;;;2.10;99.90;;;;;;4975696;28;20046;-72
2021/12/04 03:29:54;;;;;;;25.40;14.98;;;2.10;99.90;;;;;;4961708;28;20062;-72
2021/12/04 03:40:55;;;;;;;28.52;16.42;;;2.10;99.90;;;;;;4962228;28;20054;-71
2021/12/04 03:43:21;;;;;;;27.42;16.08;;;2.20;99.90;;;;;;4960369;28;20097;-72
2021/12/04 03:45:54;;;;;;;23.98;14.75;;;2.10;99.90;;;;;;4976109;28;20122;-70
2021/12/04 03:50:59;;;;;;;27.40;15.25;;;2.10;99.90;;;;;;4960316;28;20038;-71
2021/12/04 03:53:26;;;;;;;24.23;14.70;;;2.10;99.90;;;;;;4959588;28;20047;-72
2021/12/04 03:55:53;;;;;;;24.33;15.02;;;2.00;99.90;;;;;;4944439;28;20042;-71
2021/12/04 03:58:20;;;;;;;25.30;14.52;;;2.00;99.90;;;;;;4958578;28;20058;-71
2021/12/04 04:00:49;;;;;;;27.95;16.35;;;2.10;99.90;;;;;;4942490;28;20043;-71
2021/12/04 04:03:17;;;;;;;30.42;17.23;;;2.10;99.90;;;;;;4960461;28;20074;-71
2021/12/04 04:05:44;;;;;;;29.08;15.93;;;2.10;99.90;;;;;;4960332;28;20043;-70
2021/12/04 04:08:12;;;;;;;28.73;15.95;;;2.00;99.90;;;;;;4972649;28;20133;-72
2021/12/04 04:10:40;;;;;;;30.95;16.73;;;2.10;99.90;;;;;;4961634;28;20080;-72
2021/12/04 04:13:11;;;;;;;28.63;16.65;;;2.00;99.90;;;;;;4945345;28;20522;-71
2021/12/04 04:15:38;;;;;;;34.10;17.90;;;2.00;99.90;;;;;;4960944;28;20062;-71
2021/12/04 04:18:05;;;;;;;30.27;17.98;;;2.00;99.90;;;;;;4962114;28;20472;-70
2021/12/04 04:20:32;;;;;;;29.92;17.98;;;2.00;99.90;;;;;;4959046;28;20042;-71
2021/12/04 04:22:59;;;;;;;35.50;17.40;;;2.10;99.90;;;;;;4944512;28;20559;-72
2021/12/04 04:25:26;;;;;;;32.40;19.65;;;2.10;99.90;;;;;;4959136;28;20046;-71
2021/12/04 04:27:53;;;;;;;33.20;18.30;;;2.10;99.90;;;;;;4963008;28;20054;-72
2021/12/04 04:30:20;;;;;;;36.85;18.58;;;2.10;99.90;;;;;;4944798;28;20055;-70
2021/12/04 04:32:48;;;;;;;34.03;19.27;;;2.00;99.90;;;;;;4964068;28;20105;-71
2021/12/04 04:35:20;;;;;;;36.75;20.13;;;2.10;99.90;;;;;;4963634;28;20051;-72
2021/12/04 05:10:20;;;;;;;36.58;20.63;;;2.10;99.90;;;;;;4961725;28;20476;-71
2021/12/04 05:15:32;;;;;;;42.65;20.80;;;2.00;99.90;;;;;;4962413;28;20498;-71
2021/12/04 05:18:31;;;;;;;42.55;21.75;;;2.10;99.90;;;;;;4962360;28;20451;-71
2021/12/04 05:21:04;;;;;;;43.42;22.27;;;2.00;99.90;;;;;;4945857;28;20055;-70
2021/12/04 05:23:42;;;;;;;45.78;22.05;;;2.10;99.90;;;;;;4959451;28;20415;-69
2021/12/04 05:26:13;;;;;;;41.95;22.23;;;2.10;99.90;;;;;;4962536;28;20054;-73
2021/12/04 05:28:40;;;;;;;41.22;22.17;;;2.00;99.90;;;;;;4960251;28;20054;-68
2021/12/04 05:31:07;;;;;;;52.90;23.30;;;2.00;99.90;;;;;;4945030;28;20511;-70
2021/12/04 05:33:35;;;;;;;45.25;24.00;;;2.00;99.90;;;;;;4976064;28;20397;-71
2021/12/04 05:36:03;;;;;;;37.95;21.10;;;2.00;99.90;;;;;;4961128;28;20076;-69
2021/12/04 05:38:30;;;;;;;44.58;21.98;;;2.00;99.90;;;;;;4958421;28;20054;-70
2021/12/04 05:40:58;;;;;;;45.92;22.75;;;2.00;99.90;;;;;;4961096;28;20055;-71
2021/12/04 05:43:26;;;;;;;45.20;21.88;;;2.00;99.90;;;;;;4945148;28;20398;-71
2021/12/04 05:48:58;;;;;;;42.22;21.15;;;1.90;99.90;;;;;;4980098;28;20047;-70
2021/12/04 05:56:55;;;;;;;41.85;22.23;;;1.90;99.90;;;;;;4974712;28;20407;-71
2021/12/04 05:59:22;;;;;;;44.45;23.88;;;1.90;99.90;;;;;;4959309;28;20500;-70
2021/12/04 06:01:49;;;;;;;43.60;23.77;;;2.00;99.90;;;;;;4961733;28;20051;-71
2021/12/04 06:04:16;;;;;;;44.55;22.88;;;2.00;99.90;;;;;;4961355;28;20139;-70
2021/12/04 06:06:44;;;;;;;45.67;22.33;;;2.00;99.90;;;;;;4975293;28;20054;-70
2021/12/04 06:09:11;;;;;;;44.55;24.25;;;1.90;99.90;;;;;;4957447;28;20455;-72
2021/12/04 06:11:38;;;;;;;49.17;23.92;;;2.00;99.90;;;;;;4960611;28;20077;-70
2021/12/04 06:14:05;;;;;;;49.20;24.60;;;2.00;99.90;;;;;;4960067;28;20047;-72
2021/12/04 06:16:32;;;;;;;50.90;23.52;;;1.90;99.90;;;;;;4927154;28;20046;-69
2021/12/04 06:19:09;;;;;;;50.53;24.60;;;1.90;99.90;;;;;;4960228;28;20125;-71
2021/12/04 06:24:22;;;;;;;51.97;25.23;;;2.00;99.90;;;;;;4942561;28;20059;-72
2021/12/04 06:26:49;;;;;;;48.03;25.40;;;2.00;99.90;;;;;;4957375;28;20050;-71
2021/12/04 06:29:16;;;;;;;52.33;25.63;;;2.10;99.90;;;;;;4974506;28;20062;-71
2021/12/04 06:31:43;;;;;;;49.45;25.10;;;2.20;99.90;;;;;;4960938;28;20070;-70
2021/12/04 06:34:11;;;;;;;51.95;24.70;;;2.10;99.90;;;;;;4942577;28;20050;-71
2021/12/04 06:36:38;;;;;;;51.42;25.55;;;2.10;99.90;;;;;;4943056;28;20055;-72
2021/12/04 06:39:05;;;;;;;47.78;24.60;;;2.10;99.90;;;;;;4943866;28;20046;-71
2021/12/04 06:41:32;;;;;;;50.17;23.55;;;2.10;99.90;;;;;;4959131;28;20474;-71
2021/12/04 06:43:59;;;;;;;53.03;24.15;;;2.00;99.90;;;;;;4943299;28;20447;-71
2021/12/04 06:46:27;;;;;;;46.55;22.95;;;2.00;99.90;;;;;;4941669;28;20535;-70
2021/12/04 06:51:44;;;;;;;43.28;22.00;;;2.00;99.90;;;;;;4960675;28;20046;-69
2021/12/04 06:54:20;;;;;;;43.92;22.63;;;1.90;99.90;;;;;;4960645;28;20480;-71
2021/12/04 06:56:47;;;;;;;49.65;23.75;;;1.90;99.90;;;;;;4960213;28;20500;-71
2021/12/04 06:59:20;;;;;;;48.75;23.38;;;1.90;99.90;;;;;;4960093;28;20586;-72
2021/12/04 07:01:47;;;;;;;49.95;22.17;;;1.90;99.90;;;;;;4961261;28;20054;-71
2021/12/04 07:04:17;;;;;;;53.15;25.08;;;1.90;99.90;;;;;;4959646;28;20054;-71
2021/12/04 07:06:46;;;;;;;48.92;24.50;;;2.00;99.90;;;;;;4973587;28;20137;-71
2021/12/04 07:09:13;;;;;;;41.90;19.60;;;2.00;99.90;;;;;;4960006;28;20055;-70
2021/12/04 07:11:40;;;;;;;40.95;18.83;;;1.90;99.90;;;;;;4960056;28;20046;-71
2021/12/04 07:14:07;;;;;;;45.35;21.73;;;2.00;99.90;;;;;;4941151;28;20047;-72
2021/12/04 07:16:34;;;;;;;49.80;22.52;;;1.90;99.90;;;;;;4971165;28;20251;-71
2021/12/04 07:19:01;;;;;;;52.63;23.55;;;1.90;99.90;;;;;;4957175;28;20047;-71
2021/12/04 07:21:28;;;;;;;53.65;23.02;;;1.90;99.90;;;;;;4941050;28;20105;-70
2021/12/04 07:23:55;;;;;;;45.40;21.48;;;2.00;99.90;;;;;;4958569;28;20055;-71
2021/12/04 07:26:22;;;;;;;50.35;23.35;;;2.00;99.90;;;;;;4957095;28;20951;-71
2021/12/04 07:28:49;;;;;;;48.90;22.67;;;2.00;99.90;;;;;;4941386;28;20519;-70
2021/12/04 07:31:16;;;;;;;46.33;22.02;;;2.00;99.90;;;;;;4958374;28;20043;-72
2021/12/04 07:33:43;;;;;;;50.28;22.48;;;2.00;99.90;;;;;;4959408;28;20589;-70
2021/12/04 07:36:10;;;;;;;54.13;23.55;;;2.00;99.90;;;;;;4985655;28;20055;-70
2021/12/04 07:38:37;;;;;;;46.05;20.77;;;2.00;99.90;;;;;;4958286;28;20070;-69
2021/12/04 07:41:04;;;;;;;51.83;22.85;;;2.00;99.90;;;;;;4960543;28;20082;-71
2021/12/04 07:43:31;;;;;;;45.05;21.25;;;2.00;99.90;;;;;;4960178;28;20058;-70
2021/12/04 07:45:58;;;;;;;47.53;21.70;;;2.00;99.90;;;;;;4975462;28;20435;-71
2021/12/04 07:48:25;;;;;;;54.85;24.83;;;2.00;99.90;;;;;;4955837;28;20058;-71
2021/12/04 07:50:52;;;;;;;42.72;19.30;;;2.00;99.90;;;;;;4973070;28;20583;-72
2021/12/04 07:53:19;;;;;;;42.28;20.20;;;2.00;99.90;;;;;;4952057;28;20050;-71
2021/12/04 07:55:46;;;;;;;46.90;21.73;;;2.00;99.90;;;;;;4980009;28;20495;-71
2021/12/04 07:58:16;;;;;;;36.75;17.77;;;2.00;99.90;;;;;;4982663;28;20055;-70
2021/12/04 08:00:43;;;;;;;34.60;15.68;;;1.90;99.90;;;;;;4960755;28;20159;-72
2021/12/04 08:03:10;;;;;;;37.42;17.88;;;1.80;99.90;;;;;;4965669;28;20268;-71
2021/12/04 08:05:42;;;;;;;36.22;17.70;;;1.90;99.90;;;;;;4961960;28;20047;-71
2021/12/04 08:08:09;;;;;;;35.22;16.50;;;1.90;99.90;;;;;;4977837;28;20047;-71
2021/12/04 08:10:36;;;;;;;30.80;14.75;;;1.90;99.90;;;;;;4930390;28;20049;-71
2021/12/04 08:13:04;;;;;;;31.63;17.02;;;1.80;99.90;;;;;;4947809;28;20527;-72
2021/12/04 08:15:33;;;;;;;40.22;18.45;;;1.80;99.90;;;;;;4967346;28;20130;-70
2021/12/04 08:18:00;;;;;;;35.15;17.45;;;1.90;99.90;;;;;;4967260;28;20051;-71
2021/12/04 08:20:27;;;;;;;37.22;18.42;;;1.90;99.90;;;;;;4964323;28;20133;-71
2021/12/04 08:22:54;;;;;;;35.92;17.48;;;1.90;99.90;;;;;;4982136;28;20058;-72
2021/12/04 08:25:21;;;;;;;43.20;21.15;;;2.00;99.90;;;;;;4963562;28;20062;-71
2021/12/04 08:27:49;;;;;;;45.97;19.17;;;2.10;99.90;;;;;;4963194;28;20046;-70
2021/12/04 08:30:22;;;;;;;45.47;21.50;;;2.10;99.90;;;;;;4946688;28;20050;-70
2021/12/04 08:32:52;;;;;;;47.17;21.23;;;2.10;99.90;;;;;;4963614;28;20059;-69
2021/12/04 08:35:20;;;;;;;45.05;20.45;;;2.20;99.90;;;;;;4962533;28;20055;-71
2021/12/04 08:37:47;;;;;;;49.80;22.00;;;2.20;99.90;;;;;;4964137;28;20038;-70
2021/12/04 08:40:15;;;;;;;53.75;22.50;;;2.10;99.90;;;;;;4962481;28;20177;-71
2021/12/04 08:42:43;;;;;;;52.75;22.52;;;2.10;99.90;;;;;;4947690;28;20278;-70
2021/12/04 08:45:13;;;;;;;58.65;25.63;;;2.10;99.90;;;;;;4922471;28;20050;-71
2021/12/04 08:47:41;;;;;;;56.70;22.33;;;2.10;99.90;;;;;;4946561;28;20074;-70
2021/12/04 08:50:11;;;;;;;69.30;26.55;;;2.10;99.90;;;;;;4964028;28;20715;-70
2021/12/04 08:52:40;;;;;;;59.55;25.95;;;2.10;99.90;;;;;;4964651;28;20673;-69
2021/12/04 08:55:08;;;;;;;69.18;27.13;;;2.20;99.90;;;;;;4964621;28;20080;-70
2021/12/04 08:57:35;;;;;;;54.22;22.25;;;2.20;99.90;;;;;;4945644;28;20117;-72
2021/12/04 09:00:09;;;;;;;57.22;25.58;;;2.30;99.90;;;;;;4978332;28;20051;-70
2021/12/04 09:02:37;;;;;;;51.40;23.13;;;2.30;99.90;;;;;;4964344;28;20089;-69
2021/12/04 09:05:07;;;;;;;54.47;25.80;;;2.30;99.90;;;;;;4946469;28;20057;-71
2021/12/04 09:07:34;;;;;;;50.92;25.00;;;2.30;99.90;;;;;;4921967;29;20146;-70
2021/12/04 09:10:01;;;;;;;47.53;23.25;;;2.40;99.90;;;;;;4943081;28;20531;-70
2021/12/04 09:12:29;;;;;;;37.88;17.30;;;2.40;99.90;;;;;;4995782;28;20050;-69
2021/12/04 09:14:57;;;;;;;29.52;14.23;;;2.30;99.90;;;;;;4948524;28;20047;-72
2021/12/04 09:17:24;;;;;;;37.10;19.00;;;2.20;99.90;;;;;;4944802;28;20551;-71
2021/12/04 09:19:51;;;;;;;40.55;20.73;;;2.30;99.90;;;;;;4977822;28;20070;-70
2021/12/04 09:22:32;;;;;;;45.40;22.63;;;2.30;99.90;;;;;;4945078;28;20093;-69
2021/12/04 09:25:09;;;;;;;32.33;17.50;;;2.40;99.90;;;;;;4963280;28;20058;-69
2021/12/04 09:28:01;;;;;;;33.40;17.10;;;2.40;99.90;;;;;;4962913;28;20055;-70
2021/12/04 10:00:40;;;;;;;;;;;2.30;99.90;;;;;;4957534;28;20070;-71
2021/12/04 10:21:53;;;;;;;24.45;14.77;;;2.40;99.90;;;;;;4935453;28;20513;-71
2021/12/04 10:32:38;;;;;;;21.52;13.95;;;2.60;99.90;;;;;;4928172;28;20054;-70
2021/12/04 10:35:31;;;;;;;15.45;10.48;;;2.60;99.90;;;;;;4915023;28;20467;-73
2021/12/04 10:38:04;;;;;;;14.90;9.98;;;2.60;99.90;;;;;;4938367;28;20508;-70
2021/12/04 10:40:41;;;;;;;12.85;8.85;;;2.60;99.90;;;;;;4960758;28;20098;-70
2021/12/04 10:43:16;;;;;;;18.95;10.93;;;2.70;99.90;;;;;;4942908;28;20065;-70
2021/12/04 10:45:47;;;;;;;17.92;11.40;;;2.80;99.90;;;;;;4957964;28;20054;-71
2021/12/04 10:48:19;;;;;;;14.52;9.35;;;2.90;99.90;;;;;;4956068;28;20058;-71
2021/12/04 10:53:25;;;;;;;9.73;7.22;;;2.90;99.90;;;;;;4955509;28;20412;-71
2021/12/04 11:38:01;;;;;;;11.93;8.00;;;3.20;99.90;;;;;;4943453;28;20047;-70
2021/12/04 11:42:57;;;;;;;16.10;10.25;;;3.20;99.90;;;;;;4961586;28;20558;-69
2021/12/04 11:45:34;;;;;;;13.43;9.88;;;3.30;99.90;;;;;;4915616;28;20118;-69
2021/12/04 11:48:03;;;;;;;16.20;11.38;;;3.20;99.90;;;;;;4946205;28;20065;-70
2021/12/04 11:50:37;;;;;;;17.60;12.50;;;3.20;99.90;;;;;;4947870;28;20042;-72
2021/12/04 11:53:10;;;;;;;20.20;12.85;;;3.20;99.90;;;;;;4967924;28;20046;-71
2021/12/04 11:55:41;;;;;;;23.98;13.20;;;3.20;99.90;;;;;;4965239;28;20392;-71
2021/12/04 11:58:27;;;;;;;16.85;10.75;;;3.20;99.90;;;;;;4963505;28;20138;-70
2021/12/04 12:01:05;;;;;;;15.90;11.43;;;3.10;99.90;;;;;;4957843;28;20074;-70
2021/12/04 12:03:35;;;;;;;17.63;12.35;;;3.00;99.90;;;;;;4948388;28;20447;-70
2021/12/04 12:06:08;;;;;;;18.65;13.05;;;3.00;99.90;;;;;;4977894;28;20125;-71
2021/12/04 12:08:38;;;;;;;18.23;12.50;;;2.90;99.90;;;;;;4945814;28;20062;-70
2021/12/04 12:11:07;;;;;;;21.48;11.00;;;2.90;99.90;;;;;;4946998;28;20051;-68
2021/12/04 12:13:42;;;;;;;20.38;12.15;;;2.90;99.90;;;;;;4977200;28;20047;-73
2021/12/04 12:16:13;;;;;;;;;;;2.90;99.90;;;;;;4968113;28;20047;-71
2021/12/04 12:18:53;;;;;;;20.85;12.43;;;2.90;99.90;;;;;;4985532;28;19939;-70
2021/12/04 12:21:27;;;;;;;21.05;14.13;;;3.00;99.90;;;;;;4946045;28;20423;-70
2021/12/04 12:38:30;;;;;;;17.90;12.43;;;3.20;99.90;;;;;;4982321;28;20047;-70
2021/12/04 12:41:02;;;;;;;18.73;13.00;;;3.10;99.90;;;;;;4982650;28;20051;-71
2021/12/04 12:43:43;;;;;;;14.75;10.07;;;3.10;99.90;;;;;;4947043;28;20565;-72
2021/12/04 12:46:12;;;;;;;17.58;12.27;;;3.00;99.90;;;;;;4940947;28;20492;-69
2021/12/04 12:48:46;;;;;;;20.30;13.48;;;3.00;99.90;;;;;;4960516;28;20039;-70
2021/12/04 12:51:14;;;;;;;17.17;11.98;;;3.10;99.90;;;;;;4964059;28;20491;-71
2021/12/04 12:53:47;;;;;;;18.27;12.65;;;3.00;99.90;;;;;;4948580;28;20065;-70
2021/12/04 12:56:22;;;;;;;15.05;8.27;;;2.90;99.90;;;;;;4974649;28;20047;-69
2021/12/04 12:59:06;;;;;;;21.45;13.38;;;2.90;99.90;;;;;;4947322;28;20042;-70
2021/12/04 13:13:45;;;;;;;16.92;13.02;;;2.80;99.90;;;;;;4945507;28;20134;-69
2021/12/04 13:16:32;;;;;;;18.33;11.52;;;2.90;99.90;;;;;;4947496;28;20045;-70
2021/12/04 13:19:10;;;;;;;21.40;13.63;;;2.90;99.90;;;;;;4956845;28;20046;-70
2021/12/04 13:21:47;;;;;;;23.08;15.95;;;2.90;99.90;;;;;;4938097;28;20043;-70
2021/12/04 13:24:38;;;;;;;19.88;13.20;;;2.90;99.90;;;;;;4945077;28;20217;-68
2021/12/04 13:29:53;;;;;;;15.80;10.00;;;2.90;99.90;;;;;;4973866;28;20051;-71
2021/12/04 13:32:47;;;;;;;19.17;12.15;;;2.80;99.90;;;;;;4957617;28;20131;-68
2021/12/04 13:35:32;;;;;;;17.85;11.93;;;2.80;99.90;;;;;;4942090;28;20058;-69
2021/12/04 13:38:05;;;;;;;18.23;10.10;;;2.80;99.90;;;;;;4957458;28;20053;-69
2021/12/04 13:40:45;;;;;;;19.08;11.40;;;2.70;99.90;;;;;;4972941;28;20038;-70
2021/12/04 13:43:13;;;;;;;20.48;11.85;;;2.70;99.90;;;;;;4954059;28;20054;-70
2021/12/04 13:45:41;;;;;;;32.33;15.77;;;2.70;99.90;;;;;;4951112;28;20073;-71
2021/12/04 13:48:09;;;;;;;20.15;12.45;;;2.60;99.90;;;;;;4934151;28;20061;-70
2021/12/04 13:53:16;;;;;;;17.13;11.55;;;2.80;99.90;;;;;;4985523;28;20241;-70
2021/12/04 13:56:07;;;;;;;15.98;11.50;;;2.70;99.90;;;;;;4950970;28;20042;-70
2021/12/04 13:58:47;;;;;;;21.70;13.43;;;2.60;99.90;;;;;;4967173;28;20104;-68
2021/12/04 14:01:22;;;;;;;19.48;11.70;;;2.60;99.90;;;;;;4984404;28;20054;-72
2021/12/04 14:03:57;;;;;;;18.42;11.98;;;2.60;99.90;;;;;;4938093;28;20531;-68
2021/12/04 14:06:24;;;;;;;19.83;11.35;;;2.60;99.90;;;;;;4947807;28;20052;-70
2021/12/04 14:09:00;;;;;;;20.35;11.75;;;2.60;99.90;;;;;;4945334;28;20767;-72
2021/12/04 14:11:36;;;;;;;19.17;10.52;;;2.70;99.90;;;;;;4946007;28;20578;-70
2021/12/04 14:14:14;;;;;;;16.10;10.15;;;2.60;99.90;;;;;;4961266;28;20078;-70
2021/12/04 14:16:42;;;;;;;17.02;11.55;;;2.60;99.90;;;;;;4961875;28;20567;-69
2021/12/04 14:19:18;;;;;;;27.23;14.45;;;2.60;99.90;;;;;;4963943;28;20054;-71
2021/12/04 14:22:02;;;;;;;17.50;11.65;;;2.60;99.90;;;;;;5070734;27;20391;-69
2021/12/04 14:24:46;;;;;;;18.02;9.70;;;2.60;99.90;;;;;;5034916;28;20114;-70
2021/12/04 14:27:30;;;;;;;17.95;11.13;;;2.60;99.90;;;;;;5046588;28;20448;-68
2021/12/04 14:30:07;;;;;;;22.38;13.25;;;2.60;99.90;;;;;;5043279;28;20059;-70
2021/12/04 14:32:37;;;;;;;19.50;13.65;;;2.60;99.90;;;;;;5059990;28;20084;-70
2021/12/04 14:35:15;;;;;;;25.33;13.52;;;2.70;99.90;;;;;;5040456;28;20059;-70
2021/12/04 14:37:49;;;;;;;22.40;13.73;;;2.70;99.90;;;;;;5024251;28;20402;-69
2021/12/04 14:40:30;;;;;;;20.77;12.40;;;2.70;99.90;;;;;;5059406;28;20084;-70
2021/12/04 14:42:58;;;;;;;19.77;12.20;;;2.70;99.90;;;;;;5046663;28;20040;-71
2021/12/04 14:45:31;;;;;;;20.00;12.07;;;2.70;99.90;;;;;;5061987;28;20054;-70
2021/12/04 14:48:42;;;;;;;17.00;11.03;;;2.60;99.90;;;;;;5045228;28;20047;-71
2021/12/04 14:51:14;;;;;;;16.00;10.73;;;2.70;99.90;;;;;;5026897;28;20045;-69
2021/12/04 14:53:56;;;;;;;23.15;13.40;;;2.60;99.90;;;;;;5013558;28;20140;-69
2021/12/04 14:56:27;;;;;;;20.50;12.90;;;2.70;99.90;;;;;;5032256;28;20065;-69
2021/12/04 14:58:58;;;;;;;17.98;10.10;;;2.60;99.90;;;;;;5023911;28;20045;-70
2021/12/04 15:01:35;;;;;;;24.15;13.60;;;2.60;99.90;;;;;;5038089;28;20088;-70
2021/12/04 15:04:04;;;;;;;22.15;13.70;;;2.60;99.90;;;;;;5022066;28;20057;-72
2021/12/04 15:06:43;;;;;;;27.08;15.88;;;2.60;99.90;;;;;;5023045;28;20041;-69
2021/12/04 15:09:17;;;;;;;26.23;14.38;;;2.60;99.90;;;;;;5015067;28;20048;-69
2021/12/04 15:11:51;;;;;;;27.65;14.85;;;2.60;99.90;;;;;;5013784;28;20038;-69
2021/12/04 15:14:31;;;;;;;21.50;12.77;;;2.60;99.90;;;;;;5027840;28;20056;-72
2021/12/04 15:17:06;;;;;;;23.52;13.50;;;2.60;99.90;;;;;;5042383;28;20050;-69
2021/12/04 15:19:41;;;;;;;16.80;10.93;;;2.60;99.90;;;;;;5039443;28;20045;-71
2021/12/04 15:22:24;;;;;;;17.38;9.48;;;2.70;99.90;;;;;;5040430;28;20076;-72
2021/12/04 15:24:51;;;;;;;20.75;12.60;;;2.60;99.90;;;;;;5040154;28;20080;-71
2021/12/04 15:27:22;;;;;;;15.73;9.70;;;2.60;99.90;;;;;;5037422;28;20053;-71
2021/12/04 15:29:55;;;;;;;17.25;10.82;;;2.60;99.90;;;;;;5021392;28;20045;-70
2021/12/04 15:32:25;;;;;;;21.27;11.57;;;2.60;99.90;;;;;;4999377;28;20050;-70
2021/12/04 15:35:17;;;;;;;20.98;12.15;;;2.60;99.90;;;;;;5007884;28;20579;-70
2021/12/04 15:37:57;;;;;;;18.58;12.07;;;2.70;99.90;;;;;;4995752;28;20107;-71
2021/12/04 15:40:57;;;;;;;16.77;9.95;;;2.70;99.90;;;;;;5006366;28;20049;-69
2021/12/04 15:43:43;;;;;;;15.82;9.65;;;2.80;99.90;;;;;;5016165;28;20052;-73
2021/12/04 15:55:16;;;;;;;21.73;11.77;;;2.70;99.90;;;;;;5025680;28;20129;-68
2021/12/04 15:58:06;;;;;;;18.23;11.85;;;2.70;99.90;;;;;;5005012;28;20077;-70
2021/12/04 16:00:37;;;;;;;19.05;12.55;;;2.80;99.90;;;;;;5006000;28;20049;-68
2021/12/04 16:03:07;;;;;;;22.00;12.70;;;2.80;99.90;;;;;;5024081;28;20390;-69
2021/12/04 16:05:38;;;;;;;27.25;15.07;;;2.70;99.90;;;;;;5006270;28;20049;-69
2021/12/04 16:08:13;;;;;;;26.15;18.00;;;2.60;99.90;;;;;;5019758;28;20053;-70
2021/12/04 16:10:47;;;;;;;25.67;16.85;;;2.60;99.90;;;;;;5021318;28;20132;-70
2021/12/04 16:13:26;;;;;;;29.67;19.50;;;2.70;99.90;;;;;;5025065;28;20045;-72
2021/12/04 16:15:57;;;;;;;34.13;21.20;;;2.70;99.90;;;;;;5025674;28;20049;-71
2021/12/04 16:18:29;;;;;;;26.45;17.17;;;2.60;99.90;;;;;;5004442;28;20497;-71
2021/12/04 16:20:56;;;;;;;36.75;24.02;;;2.80;99.90;;;;;;5004862;28;20055;-71
2021/12/04 16:23:25;;;;;;;39.85;25.02;;;2.80;99.90;;;;;;5022970;28;20053;-71
2021/12/04 16:25:53;;;;;;;26.17;14.93;;;2.80;99.90;;;;;;5022500;28;20056;-69
2021/12/04 16:28:42;;;;;;;39.80;23.70;;;2.80;99.90;;;;;;5005164;28;20103;-72
2021/12/04 16:37:03;;;;;;;38.95;22.77;;;2.70;99.90;;;;;;5006653;28;20050;-71
2021/12/04 16:39:14;;;;;;;97.35;57.75;;;2.80;99.90;;;;;;5021684;28;20129;-71